Time;durP1;ratioP1;P1;durP2;ratioP2;P2;SDS_P1;SDS_P2;PMS_P1;PMS_P2;Temp;Humidity;BMP_temperature;BMP_pressure;BME280_temperature;BME280_humidity;BME280_pressure;Samples;Min_cycle;Max_cycle;Signal;HPM_P1;HPM_P2
2022/07/05 00:01:49;;;;;;;;;;;14.90;62.70;;;;;;4154077;28;19993;-82
2022/07/05 00:04:10;;;;;;;;;;;14.90;62.50;;;;;;4153717;28;20421;-80
2022/07/05 00:06:31;;;;;;;;;;;14.80;62.70;;;;;;4155364;28;19918;-82
2022/07/05 00:08:52;;;;;;;;;;;14.80;62.60;;;;;;4157568;28;19909;-82
2022/07/05 00:11:13;;;;;;;;;;;14.80;62.60;;;;;;4150895;28;19916;-81
2022/07/05 00:13:34;;;;;;;;;;;14.80;62.20;;;;;;4155428;28;19909;-81
2022/07/05 00:15:54;;;;;;;;;;;14.80;62.60;;;;;;4143624;28;19913;-81
2022/07/05 00:18:15;;;;;;;;;;;14.80;62.30;;;;;;4153096;28;19913;-80
2022/07/05 00:20:36;;;;;;;;;;;14.80;63.10;;;;;;4161921;28;19916;-80
2022/07/05 00:22:57;;;;;;;;;;;14.80;62.50;;;;;;4155600;28;20035;-82
2022/07/05 00:25:18;;;;;;;;;;;14.80;61.60;;;;;;4160308;28;19994;-81
2022/07/05 00:27:39;;;;;;;;;;;14.80;60.60;;;;;;4155975;28;19917;-82
2022/07/05 00:30:00;;;;;;;;;;;14.80;60.40;;;;;;4150309;28;19991;-81
2022/07/05 00:32:20;;;;;;;;;;;14.80;61.00;;;;;;4162962;28;19909;-81
2022/07/05 00:34:41;;;;;;;;;;;14.80;61.90;;;;;;4155947;28;20266;-81
2022/07/05 00:37:02;;;;;;;;;;;14.80;62.30;;;;;;4142752;28;19920;-81
2022/07/05 00:39:23;;;;;;;;;;;14.80;62.60;;;;;;4153714;28;19924;-82
2022/07/05 00:41:44;;;;;;;;;;;14.70;62.60;;;;;;4158789;28;19909;-81
2022/07/05 00:44:06;;;;;;;;;;;14.80;63.00;;;;;;4158339;28;19931;-82
2022/07/05 00:46:27;;;;;;;;;;;14.80;63.60;;;;;;4153363;28;20012;-80
2022/07/05 00:48:48;;;;;;;;;;;14.80;63.00;;;;;;4153699;28;19909;-81
2022/07/05 00:51:10;;;;;;;;;;;14.80;61.90;;;;;;4131498;28;19910;-82
2022/07/05 00:53:30;;;;;;;;;;;14.80;61.60;;;;;;4138371;28;19963;-82
2022/07/05 00:55:51;;;;;;;;;;;14.70;62.80;;;;;;4148094;28;20296;-82
2022/07/05 00:58:12;;;;;;;;;;;14.70;62.20;;;;;;4152657;28;19912;-82
2022/07/05 01:00:33;;;;;;;;;;;14.70;62.00;;;;;;4152330;28;19913;-83
2022/07/05 01:02:54;;;;;;;;;;;14.70;61.70;;;;;;4140960;28;19914;-83
2022/07/05 01:05:15;;;;;;;;;;;14.60;62.20;;;;;;4153540;28;20008;-82
2022/07/05 01:07:36;;;;;;;;;;;14.60;62.40;;;;;;4153055;28;20234;-82
2022/07/05 01:09:57;;;;;;;;;;;14.60;62.40;;;;;;4137562;28;19935;-82
2022/07/05 01:12:18;;;;;;;;;;;14.60;62.30;;;;;;4150949;28;19957;-82
2022/07/05 01:14:40;;;;;;;;;;;14.60;63.00;;;;;;4153143;28;19920;-83
2022/07/05 01:17:01;;;;;;;;;;;14.60;63.70;;;;;;4141968;28;20283;-83
2022/07/05 01:19:22;;;;;;;;;;;14.50;63.00;;;;;;4152112;28;19967;-82
2022/07/05 01:21:44;;;;;;;;;;;14.50;63.50;;;;;;4140627;28;20013;-83
2022/07/05 01:24:06;;;;;;;;;;;14.50;63.40;;;;;;4137642;28;19925;-83
2022/07/05 01:26:27;;;;;;;;;;;14.50;63.90;;;;;;4150237;28;20008;-83
2022/07/05 01:28:48;;;;;;;;;;;14.60;63.70;;;;;;4148654;28;20365;-83
2022/07/05 01:31:09;;;;;;;;;;;14.50;63.70;;;;;;4148694;28;19909;-83
2022/07/05 01:33:30;;;;;;;;;;;14.50;63.70;;;;;;4158450;28;20458;-83
2022/07/05 01:35:51;;;;;;;;;;;14.50;65.10;;;;;;4144763;28;19927;-83
2022/07/05 01:38:12;;;;;;;;;;;14.50;65.10;;;;;;4143562;28;19916;-83
2022/07/05 01:40:32;;;;;;;;;;;14.40;64.50;;;;;;4134035;28;19948;-83
2022/07/05 01:42:53;;;;;;;;;;;14.40;64.80;;;;;;4153383;28;19921;-82
2022/07/05 01:45:38;;;;;;;;;;;14.40;64.80;;;;;;4153570;28;19948;-83
2022/07/05 01:47:55;;;;;;;;;;;14.40;65.10;;;;;;4150339;28;19913;-83
2022/07/05 01:50:20;;;;;;;;;;;14.30;64.60;;;;;;4142869;28;19944;-82
2022/07/05 01:52:43;;;;;;;;;;;14.30;65.10;;;;;;4164119;28;19917;-82
2022/07/05 01:55:04;;;;;;;;;;;14.30;64.80;;;;;;4162214;28;19937;-83
2022/07/05 01:57:25;;;;;;;;;;;14.30;64.70;;;;;;4153961;28;19910;-82
2022/07/05 01:59:46;;;;;;;;;;;14.20;64.30;;;;;;4160334;28;19965;-83
2022/07/05 02:02:08;;;;;;;;;;;14.20;65.70;;;;;;4154850;28;19909;-83
2022/07/05 02:04:29;;;;;;;;;;;14.20;65.80;;;;;;4158416;28;19917;-83
2022/07/05 02:06:49;;;;;;;;;;;14.10;65.80;;;;;;4156465;28;19928;-83
2022/07/05 02:09:10;;;;;;;;;;;14.10;65.40;;;;;;4155082;28;19918;-83
2022/07/05 02:11:31;;;;;;;;;;;14.10;65.50;;;;;;4157842;28;19917;-84
2022/07/05 02:13:52;;;;;;;;;;;14.00;65.40;;;;;;4155185;28;19909;-83
2022/07/05 02:16:13;;;;;;;;;;;14.00;66.20;;;;;;4151596;28;19917;-83
2022/07/05 02:18:34;;;;;;;;;;;13.90;65.70;;;;;;4158224;28;20319;-83
2022/07/05 02:20:55;;;;;;;;;;;13.90;66.60;;;;;;4156682;28;19910;-83
2022/07/05 02:23:15;;;;;;;;;;;13.90;66.10;;;;;;4152771;28;20309;-83
2022/07/05 02:25:36;;;;;;;;;;;13.80;66.10;;;;;;4147611;28;20187;-83
2022/07/05 02:27:57;;;;;;;;;;;13.80;66.10;;;;;;4160787;28;19909;-83
2022/07/05 02:30:18;;;;;;;;;;;13.70;66.20;;;;;;4139111;28;19917;-83
2022/07/05 02:32:39;;;;;;;;;;;13.70;66.10;;;;;;4154616;28;20349;-83
2022/07/05 02:35:00;;;;;;;;;;;13.70;66.70;;;;;;4149222;28;20407;-83
2022/07/05 02:37:21;;;;;;;;;;;13.60;67.00;;;;;;4141276;28;19952;-83
2022/07/05 02:39:42;;;;;;;;;;;13.60;66.60;;;;;;4149114;28;19980;-83
2022/07/05 02:42:03;;;;;;;;;;;13.50;66.50;;;;;;4155605;28;19915;-84
2022/07/05 02:44:24;;;;;;;;;;;13.50;66.80;;;;;;4156510;28;19924;-83
2022/07/05 02:46:45;;;;;;;;;;;13.50;66.60;;;;;;4152942;28;19909;-83
2022/07/05 02:49:05;;;;;;;;;;;13.40;66.40;;;;;;4143013;28;20013;-83
2022/07/05 02:51:26;;;;;;;;;;;13.40;66.00;;;;;;4155114;28;19916;-82
2022/07/05 02:53:47;;;;;;;;;;;13.40;67.10;;;;;;4164293;28;19913;-83
2022/07/05 02:56:08;;;;;;;;;;;13.40;67.60;;;;;;4153777;28;19995;-83
2022/07/05 02:58:29;;;;;;;;;;;13.30;67.30;;;;;;4150828;28;19912;-83
2022/07/05 03:00:50;;;;;;;;;;;13.30;66.70;;;;;;4152564;28;20400;-83
2022/07/05 03:03:11;;;;;;;;;;;13.30;67.10;;;;;;4158374;28;20004;-83
2022/07/05 03:05:32;;;;;;;;;;;13.30;66.70;;;;;;4155454;28;20273;-83
2022/07/05 03:07:52;;;;;;;;;;;13.20;66.70;;;;;;4139993;28;19925;-83
2022/07/05 03:10:13;;;;;;;;;;;13.20;66.90;;;;;;4154069;28;19924;-83
2022/07/05 03:12:34;;;;;;;;;;;13.20;67.70;;;;;;4166205;28;20020;-83
2022/07/05 03:14:55;;;;;;;;;;;13.20;68.00;;;;;;4154156;28;19909;-83
2022/07/05 03:17:16;;;;;;;;;;;13.20;67.90;;;;;;4159436;28;19913;-83
2022/07/05 03:19:37;;;;;;;;;;;13.20;67.90;;;;;;4156181;28;19937;-83
2022/07/05 03:21:58;;;;;;;;;;;13.10;68.20;;;;;;4154420;28;20380;-82
2022/07/05 03:24:18;;;;;;;;;;;13.10;68.10;;;;;;4145408;28;19928;-83
2022/07/05 03:26:39;;;;;;;;;;;13.10;68.90;;;;;;4166151;28;20000;-83
2022/07/05 03:29:00;;;;;;;;;;;13.10;68.80;;;;;;4149650;28;19913;-82
2022/07/05 03:31:21;;;;;;;;;;;13.10;68.20;;;;;;4153958;28;19917;-83
2022/07/05 03:33:42;;;;;;;;;;;13.10;67.80;;;;;;4154660;28;19910;-83
2022/07/05 03:36:03;;;;;;;;;;;13.10;68.30;;;;;;4156589;28;19932;-83
2022/07/05 03:38:24;;;;;;;;;;;13.10;68.00;;;;;;4150853;28;19920;-83
2022/07/05 03:40:45;;;;;;;;;;;13.10;68.60;;;;;;4153858;28;20273;-83
2022/07/05 03:43:06;;;;;;;;;;;13.10;68.50;;;;;;4165313;28;19964;-83
2022/07/05 03:45:27;;;;;;;;;;;13.10;67.90;;;;;;4153120;28;19909;-83
2022/07/05 03:47:47;;;;;;;;;;;13.10;67.80;;;;;;4160534;28;19920;-83
2022/07/05 03:50:08;;;;;;;;;;;13.10;68.20;;;;;;4146726;28;19913;-83
2022/07/05 03:52:29;;;;;;;;;;;13.10;68.60;;;;;;4144127;28;19976;-83
2022/07/05 03:54:50;;;;;;;;;;;13.10;68.90;;;;;;4153388;28;19913;-82
2022/07/05 03:57:12;;;;;;;;;;;13.20;69.70;;;;;;4151625;28;19955;-82
2022/07/05 03:59:33;;;;;;;;;;;13.20;69.90;;;;;;4147612;28;19913;-82
2022/07/05 04:01:54;;;;;;;;;;;13.30;70.20;;;;;;4153390;28;19972;-83
2022/07/05 04:04:15;;;;;;;;;;;13.30;70.70;;;;;;4140756;28;20333;-82
2022/07/05 04:06:36;;;;;;;;;;;13.40;71.60;;;;;;4140472;28;19925;-82
2022/07/05 04:08:57;;;;;;;;;;;13.50;71.50;;;;;;4148673;28;19909;-82
2022/07/05 04:11:17;;;;;;;;;;;13.60;72.10;;;;;;4150184;28;20294;-83
2022/07/05 04:13:40;;;;;;;;;;;13.60;72.10;;;;;;4146318;28;19909;-83
2022/07/05 04:16:01;;;;;;;;;;;13.70;73.30;;;;;;4153200;28;19924;-83
2022/07/05 04:18:22;;;;;;;;;;;13.80;73.90;;;;;;4154149;28;19910;-83
2022/07/05 04:20:43;;;;;;;;;;;13.90;74.00;;;;;;4150053;28;19968;-82
2022/07/05 04:23:04;;;;;;;;;;;14.00;74.20;;;;;;4135806;28;19921;-82
2022/07/05 04:25:25;;;;;;;;;;;14.10;73.90;;;;;;4143694;28;19916;-83
2022/07/05 04:27:46;;;;;;;;;;;14.20;74.30;;;;;;4147671;28;20056;-84
2022/07/05 04:30:07;;;;;;;;;;;14.20;73.60;;;;;;4157683;28;19909;-83
2022/07/05 04:32:28;;;;;;;;;;;14.30;73.40;;;;;;4157174;28;19909;-83
2022/07/05 04:34:49;;;;;;;;;;;14.40;73.60;;;;;;4152844;28;19916;-84
2022/07/05 04:37:10;;;;;;;;;;;14.50;73.80;;;;;;4137599;28;20004;-84
2022/07/05 04:39:31;;;;;;;;;;;14.60;73.90;;;;;;4152971;28;19925;-83
2022/07/05 04:41:52;;;;;;;;;;;14.70;73.50;;;;;;4152987;28;19913;-84
2022/07/05 04:44:13;;;;;;;;;;;14.80;72.70;;;;;;4155043;28;20539;-84
2022/07/05 04:46:33;;;;;;;;;;;14.90;72.50;;;;;;4151029;28;19916;-83
2022/07/05 04:48:54;;;;;;;;;;;15.00;71.40;;;;;;4152127;28;19914;-83
2022/07/05 04:51:15;;;;;;;;;;;15.10;70.60;;;;;;4149753;28;20019;-84
2022/07/05 04:53:36;;;;;;;;;;;15.20;70.20;;;;;;4155250;28;19949;-83
2022/07/05 04:55:57;;;;;;;;;;;15.30;69.90;;;;;;4143917;28;19942;-83
2022/07/05 04:58:18;;;;;;;;;;;15.40;69.20;;;;;;4150946;28;19917;-83
2022/07/05 05:00:39;;;;;;;;;;;15.50;68.60;;;;;;4167701;28;19964;-83
2022/07/05 05:03:00;;;;;;;;;;;15.50;67.90;;;;;;4141834;28;19920;-83
2022/07/05 05:05:20;;;;;;;;;;;15.50;66.70;;;;;;4152479;28;20356;-82
2022/07/05 05:07:44;;;;;;;;;;;15.50;65.90;;;;;;4151041;28;20765;-83
2022/07/05 05:10:06;;;;;;;;;;;15.50;65.10;;;;;;4136639;28;19916;-82
2022/07/05 05:12:27;;;;;;;;;;;15.50;65.10;;;;;;4153732;28;19918;-82
2022/07/05 05:14:47;;;;;;;;;;;15.50;64.90;;;;;;4153962;28;19909;-83
2022/07/05 05:17:08;;;;;;;;;;;15.50;64.60;;;;;;4154188;28;19916;-81
2022/07/05 05:19:29;;;;;;;;;;;15.40;64.50;;;;;;4157435;28;19913;-83
2022/07/05 05:21:50;;;;;;;;;;;15.40;64.40;;;;;;4165277;28;19943;-82
2022/07/05 05:24:11;;;;;;;;;;;15.40;64.20;;;;;;4143238;28;19944;-83
2022/07/05 05:26:32;;;;;;;;;;;15.30;64.00;;;;;;4148396;28;20003;-81
2022/07/05 05:28:53;;;;;;;;;;;15.30;63.90;;;;;;4151304;28;19917;-82
2022/07/05 05:31:14;;;;;;;;;;;15.30;63.90;;;;;;4164104;28;19968;-81
2022/07/05 05:33:34;;;;;;;;;;;15.30;64.00;;;;;;4165144;28;20712;-80
2022/07/05 05:35:56;;;;;;;;;;;15.20;64.10;;;;;;4137660;28;21131;-86
2022/07/05 05:38:17;;;;;;;;;;;15.20;64.20;;;;;;4167559;28;19995;-90
2022/07/05 05:40:38;;;;;;;;;;;15.30;64.30;;;;;;4166824;28;19924;-88
2022/07/05 05:42:59;;;;;;;;;;;15.30;64.20;;;;;;4152386;28;20285;-90
2022/07/05 05:45:20;;;;;;;;;;;15.30;64.20;;;;;;4155193;28;19909;-88
2022/07/05 05:48:07;;;;;;;;;;;15.30;64.20;;;;;;4151905;28;20311;-88
2022/07/05 05:50:32;;;;;;;;;;;15.30;64.50;;;;;;4148203;28;19913;-80
2022/07/05 05:52:53;;;;;;;;;;;15.40;64.50;;;;;;4147089;28;20403;-78
2022/07/05 05:55:14;;;;;;;;;;;15.50;64.80;;;;;;4154742;28;19913;-77
2022/07/05 05:57:36;;;;;;;;;;;15.50;64.90;;;;;;4146519;28;19995;-78
2022/07/05 05:59:57;;;;;;;;;;;15.60;64.60;;;;;;4151447;28;19940;-77
2022/07/05 06:02:18;;;;;;;;;;;15.60;64.30;;;;;;4148206;28;19909;-76
2022/07/05 06:04:39;;;;;;;;;;;15.60;63.80;;;;;;4150012;28;19912;-78
2022/07/05 06:06:59;;;;;;;;;;;15.70;63.40;;;;;;4136710;28;19987;-77
2022/07/05 06:09:20;;;;;;;;;;;15.70;62.60;;;;;;4148508;28;20337;-78
2022/07/05 06:11:41;;;;;;;;;;;15.70;62.40;;;;;;4148849;28;20395;-78
2022/07/05 06:14:02;;;;;;;;;;;15.70;62.30;;;;;;4150450;28;19916;-76
2022/07/05 06:16:23;;;;;;;;;;;15.60;62.30;;;;;;4146243;28;20400;-78
2022/07/05 06:18:44;;;;;;;;;;;15.60;62.10;;;;;;4151151;28;19909;-77
2022/07/05 06:21:05;;;;;;;;;;;15.60;62.00;;;;;;4150418;28;20379;-76
2022/07/05 06:23:26;;;;;;;;;;;15.60;62.00;;;;;;4153119;28;20285;-77
2022/07/05 06:25:46;;;;;;;;;;;15.60;61.90;;;;;;4149895;28;19960;-76
2022/07/05 06:28:08;;;;;;;;;;;15.60;61.80;;;;;;4152261;28;20258;-77
2022/07/05 06:30:29;;;;;;;;;;;15.60;61.60;;;;;;4151230;28;19913;-78
2022/07/05 06:32:51;;;;;;;;;;;15.60;61.50;;;;;;4153860;28;19909;-78
2022/07/05 06:35:12;;;;;;;;;;;15.60;61.40;;;;;;4146514;28;19920;-77
2022/07/05 06:38:05;;;;;;;;;;;15.60;61.20;;;;;;4151167;28;19939;-77
2022/07/05 06:40:30;;;;;;;;;;;15.60;61.10;;;;;;4105519;28;20580;-77
2022/07/05 06:42:53;;;;;;;;;;;15.60;61.20;;;;;;4115272;28;19926;-77
2022/07/05 06:45:14;;;;;;;;;;;15.60;61.10;;;;;;4110378;28;19914;-77
2022/07/05 06:47:35;;;;;;;;;;;15.60;61.20;;;;;;4107826;28;19949;-77
2022/07/05 06:49:57;;;;;;;;;;;15.60;61.10;;;;;;4106270;28;19918;-76
2022/07/05 06:52:18;;;;;;;;;;;15.60;61.30;;;;;;4107044;28;19910;-76
2022/07/05 06:54:39;;;;;;;;;;;15.70;61.50;;;;;;4102226;28;19917;-91
2022/07/05 06:57:00;;;;;;;;;;;15.70;61.70;;;;;;4097080;28;19911;-89
2022/07/05 06:59:22;;;;;;;;;;;15.80;61.80;;;;;;4110205;28;19925;-89
2022/07/05 07:01:43;;;;;;;;;;;15.80;61.90;;;;;;4106671;28;20421;-90
2022/07/05 07:04:03;;;;;;;;;;;15.90;62.10;;;;;;4105197;28;19921;-88
2022/07/05 07:06:24;;;;;;;;;;;15.90;62.10;;;;;;4120863;28;19910;-88
2022/07/05 07:11:25;;;;;;;;;;;16.10;62.40;;;;;;4111884;28;19961;-87
2022/07/05 07:13:46;;;;;;;;;;;16.10;62.30;;;;;;4111758;28;20465;-88
2022/07/05 07:16:07;;;;;;;;;;;16.20;62.30;;;;;;4122436;28;19909;-88
2022/07/05 07:18:28;;;;;;;;;;;16.30;62.10;;;;;;4155217;28;20267;-92
2022/07/05 07:20:49;;;;;;;;;;;16.30;62.20;;;;;;4151859;28;19956;-89
2022/07/05 07:23:10;;;;;;;;;;;16.40;62.20;;;;;;4151714;28;19913;-89
2022/07/05 07:25:31;;;;;;;;;;;16.50;62.20;;;;;;4154553;28;19920;-90
2022/07/05 07:27:53;;;;;;;;;;;16.60;62.80;;;;;;4164618;28;20463;-88
2022/07/05 07:30:15;;;;;;;;;;;16.70;62.20;;;;;;4157144;28;19917;-89
2022/07/05 07:32:36;;;;;;;;;;;16.80;60.90;;;;;;4152663;28;19909;-89
2022/07/05 07:34:56;;;;;;;;;;;16.90;61.20;;;;;;4142626;28;19959;-92
2022/07/05 07:37:18;;;;;;;;;;;17.00;60.90;;;;;;4157791;28;19959;-90
2022/07/05 07:39:40;;;;;;;;;;;17.10;61.10;;;;;;4160374;28;20332;-91
2022/07/05 07:42:00;;;;;;;;;;;17.20;61.10;;;;;;4160550;28;19918;-92
2022/07/05 07:44:21;;;;;;;;;;;17.20;60.10;;;;;;4155599;28;20396;-87
2022/07/05 07:46:42;;;;;;;;;;;17.30;59.80;;;;;;4154482;28;20010;-87
2022/07/05 07:49:03;;;;;;;;;;;17.30;59.50;;;;;;4142971;28;19909;-90
2022/07/05 07:51:24;;;;;;;;;;;17.40;59.60;;;;;;4158476;28;19916;-91
2022/07/05 07:53:45;;;;;;;;;;;17.40;59.60;;;;;;4159286;28;19975;-88
2022/07/05 07:56:06;;;;;;;;;;;17.50;59.60;;;;;;4156264;28;20246;-90
2022/07/05 07:58:28;;;;;;;;;;;17.50;59.50;;;;;;4145862;28;19917;-90
2022/07/05 08:00:49;;;;;;;;;;;17.50;59.40;;;;;;4165371;28;19912;-88
2022/07/05 08:03:10;;;;;;;;;;;17.60;59.30;;;;;;4147090;28;19913;-88
2022/07/05 08:05:31;;;;;;;;;;;17.60;59.20;;;;;;4140988;28;19914;-88
2022/07/05 08:07:52;;;;;;;;;;;17.60;59.40;;;;;;4152337;28;19975;-89
2022/07/05 08:10:13;;;;;;;;;;;17.70;59.50;;;;;;4166090;28;19904;-91
2022/07/05 08:12:43;;;;;;;;;;;17.70;59.30;;;;;;4152509;28;20451;-90
2022/07/05 08:15:08;;;;;;;;;;;17.80;58.90;;;;;;4159266;28;20319;-91
2022/07/05 08:17:29;;;;;;;;;;;17.80;58.80;;;;;;4164838;28;19909;-90
2022/07/05 08:22:30;;;;;;;;;;;17.90;58.50;;;;;;4150588;28;19960;-92
2022/07/05 08:24:51;;;;;;;;;;;17.80;58.50;;;;;;4141952;28;19936;-92
2022/07/05 08:27:13;;;;;;;;;;;17.90;58.60;;;;;;4143031;28;19912;-90
2022/07/05 08:29:34;;;;;;;;;;;17.80;59.80;;;;;;4156712;28;19928;-92
2022/07/05 08:31:54;;;;;;;;;;;17.70;58.90;;;;;;4155244;28;19915;-91
2022/07/05 08:34:18;;;;;;;;;;;17.60;58.60;;;;;;4159027;28;19913;-92
2022/07/05 08:36:41;;;;;;;;;;;17.50;58.40;;;;;;4157371;28;20361;-89
2022/07/05 08:39:03;;;;;;;;;;;17.40;58.80;;;;;;4156842;28;19916;-89
2022/07/05 08:41:28;;;;;;;;;;;17.20;58.30;;;;;;4147241;28;19917;-90
2022/07/05 08:43:52;;;;;;;;;;;17.00;58.60;;;;;;4169121;28;20320;-89
2022/07/05 08:46:19;;;;;;;;;;;16.90;58.90;;;;;;4165233;28;19909;-91
2022/07/05 08:48:44;;;;;;;;;;;16.80;59.40;;;;;;4145610;28;20001;-89
2022/07/05 08:51:05;;;;;;;;;;;16.70;59.30;;;;;;4135925;28;20554;-89
2022/07/05 08:53:26;;;;;;;;;;;16.60;59.50;;;;;;4154072;28;19913;-91
2022/07/05 08:55:47;;;;;;;;;;;16.50;59.90;;;;;;4153559;28;19999;-89
2022/07/05 08:58:08;;;;;;;;;;;16.40;60.80;;;;;;4148740;28;19916;-91
2022/07/05 09:00:29;;;;;;;;;;;16.40;60.90;;;;;;4141121;28;19909;-91
2022/07/05 09:02:51;;;;;;;;;;;16.30;61.10;;;;;;4154816;28;19925;-87
2022/07/05 09:05:14;;;;;;;;;;;16.30;61.20;;;;;;4138383;28;20300;-89
2022/07/05 09:07:36;;;;;;;;;;;16.30;61.50;;;;;;4141592;28;19909;-87
2022/07/05 09:09:58;;;;;;;;;;;16.30;61.60;;;;;;4151791;28;19915;-88
2022/07/05 09:12:19;;;;;;;;;;;16.30;61.90;;;;;;4148232;28;19916;-88
2022/07/05 09:14:40;;;;;;;;;;;16.30;62.20;;;;;;4154137;28;19955;-92
2022/07/05 09:17:01;;;;;;;;;;;16.30;62.50;;;;;;4143597;28;19909;-89
2022/07/05 09:19:22;;;;;;;;;;;16.30;62.40;;;;;;4138952;28;20004;-90
2022/07/05 09:21:43;;;;;;;;;;;16.40;62.70;;;;;;4152120;28;19956;-88
2022/07/05 09:24:06;;;;;;;;;;;16.40;62.90;;;;;;4149823;28;19917;-88
2022/07/05 09:26:47;;;;;;;;;;;16.40;63.10;;;;;;4138295;28;20416;-91
2022/07/05 09:29:12;;;;;;;;;;;16.40;63.40;;;;;;4151573;28;19928;-89
2022/07/05 09:31:34;;;;;;;;;;;16.50;63.50;;;;;;4154242;28;19939;-89
2022/07/05 09:34:02;;;;;;;;;;;16.50;63.80;;;;;;4164266;28;20133;-88
2022/07/05 09:36:23;;;;;;;;;;;16.60;64.20;;;;;;4149836;28;22421;-90
2022/07/05 09:38:49;;;;;;;;;;;16.70;64.90;;;;;;4130311;28;19926;-90
2022/07/05 09:41:11;;;;;;;;;;;16.70;64.60;;;;;;4155531;28;19897;-90
2022/07/05 09:43:32;;;;;;;;;;;16.80;64.60;;;;;;4160176;28;20093;-89
2022/07/05 09:45:57;;;;;;;;;;;16.90;64.80;;;;;;4155342;28;19913;-90
2022/07/05 09:48:18;;;;;;;;;;;17.00;65.10;;;;;;4157718;28;19910;-91
2022/07/05 09:50:39;;;;;;;;;;;17.10;64.80;;;;;;4166618;28;20414;-90
2022/07/05 09:53:00;;;;;;;;;;;17.20;64.40;;;;;;4156526;28;20737;-89
2022/07/05 09:55:20;;;;;;;;;;;17.30;64.00;;;;;;4142204;28;19913;-90
2022/07/05 09:57:42;;;;;;;;;;;17.40;63.60;;;;;;4152907;28;19948;-92
2022/07/05 10:00:14;;;;;;;;;;;17.50;63.40;;;;;;4139085;28;19918;-91
2022/07/05 10:02:42;;;;;;;;;;;17.60;63.10;;;;;;4144658;28;20274;-88
2022/07/05 10:05:10;;;;;;;;;;;17.70;63.00;;;;;;4158639;28;19909;-90
2022/07/05 10:07:31;;;;;;;;;;;17.80;63.00;;;;;;4170035;28;19924;-91
2022/07/05 10:09:52;;;;;;;;;;;17.90;61.50;;;;;;4149769;28;19929;-90
2022/07/05 10:12:13;;;;;;;;;;;18.00;61.50;;;;;;4166004;28;19931;-90
2022/07/05 10:14:34;;;;;;;;;;;18.10;61.80;;;;;;4167517;28;19931;-90
2022/07/05 10:17:00;;;;;;;;;;;18.20;60.80;;;;;;4160003;28;20003;-92
2022/07/05 10:19:22;;;;;;;;;;;18.30;60.10;;;;;;4153697;28;19947;-89
2022/07/05 10:21:44;;;;;;;;;;;18.40;59.80;;;;;;4154040;28;19909;-90
2022/07/05 10:24:05;;;;;;;;;;;18.40;59.40;;;;;;4156822;28;19920;-90
2022/07/05 10:26:32;;;;;;;;;;;18.40;59.20;;;;;;4147421;28;19996;-88
2022/07/05 10:28:54;;;;;;;;;;;18.40;58.90;;;;;;4143659;28;20365;-89
2022/07/05 10:31:15;;;;;;;;;;;18.40;59.10;;;;;;4170766;28;19983;-89
2022/07/05 10:33:37;;;;;;;;;;;18.50;59.10;;;;;;4150928;28;19920;-90
2022/07/05 10:35:58;;;;;;;;;;;18.50;58.90;;;;;;4144160;28;20381;-88
2022/07/05 10:38:20;;;;;;;;;;;18.60;58.80;;;;;;4168854;28;19913;-90
2022/07/05 10:40:43;;;;;;;;;;;18.60;58.90;;;;;;4168914;28;19928;-89
2022/07/05 10:43:04;;;;;;;;;;;18.60;58.70;;;;;;4148739;28;19921;-88
2022/07/05 10:45:26;;;;;;;;;;;18.70;58.60;;;;;;4166450;28;19909;-88
2022/07/05 10:48:06;;;;;;;;;;;18.70;57.20;;;;;;4161257;28;19980;-88
2022/07/05 10:50:41;;;;;;;;;;;18.80;55.70;;;;;;4155803;28;19913;-90
2022/07/05 10:53:02;;;;;;;;;;;18.80;56.60;;;;;;4158796;28;19905;-87
2022/07/05 10:55:26;;;;;;;;;;;18.80;56.50;;;;;;4158820;28;19959;-90
2022/07/05 10:58:06;;;;;;;;;;;18.80;55.80;;;;;;4143747;28;19913;-88
2022/07/05 11:00:27;;;;;;;;;;;18.80;54.00;;;;;;4163680;28;19951;-88
2022/07/05 11:03:05;;;;;;;;;;;18.80;54.20;;;;;;4161660;28;19920;-88
2022/07/05 11:05:26;;;;;;;;;;;18.80;54.80;;;;;;4142775;28;20397;-88
2022/07/05 11:08:03;;;;;;;;;;;18.80;54.60;;;;;;4148303;28;19940;-88
2022/07/05 11:10:27;;;;;;;;;;;18.90;55.10;;;;;;4161207;28;20273;-90
2022/07/05 11:12:50;;;;;;;;;;;18.90;55.30;;;;;;4160952;28;19916;-91
2022/07/05 11:15:11;;;;;;;;;;;18.90;55.50;;;;;;4168730;28;19913;-92
2022/07/05 11:17:35;;;;;;;;;;;19.00;54.40;;;;;;4151197;28;20381;-90
2022/07/05 11:20:01;;;;;;;;;;;19.00;52.60;;;;;;4142116;28;20305;-92
2022/07/05 11:22:21;;;;;;;;;;;19.00;53.10;;;;;;4136366;28;20028;-91
2022/07/05 11:24:42;;;;;;;;;;;19.00;53.30;;;;;;4149999;28;19924;-88
2022/07/05 11:27:08;;;;;;;;;;;19.00;52.70;;;;;;4136633;28;19923;-90
2022/07/05 11:29:41;;;;;;;;;;;19.10;53.50;;;;;;4153608;28;19912;-90
2022/07/05 11:32:06;;;;;;;;;;;19.10;53.20;;;;;;4148154;28;20537;-90
2022/07/05 11:34:34;;;;;;;;;;;19.10;54.10;;;;;;4155334;28;19913;-89
2022/07/05 11:37:13;;;;;;;;;;;19.10;53.80;;;;;;4154510;28;19909;-90
2022/07/05 11:39:34;;;;;;;;;;;19.20;53.90;;;;;;4167725;28;20443;-88
2022/07/05 11:41:55;;;;;;;;;;;19.20;53.70;;;;;;4151394;28;19913;-91
2022/07/05 11:44:16;;;;;;;;;;;19.20;53.70;;;;;;4137938;28;19925;-88
2022/07/05 11:46:37;;;;;;;;;;;19.20;53.80;;;;;;4152705;28;19913;-89
2022/07/05 11:48:59;;;;;;;;;;;19.20;54.20;;;;;;4147469;28;19912;-92
2022/07/05 11:51:20;;;;;;;;;;;19.20;54.30;;;;;;4145031;28;20333;-87
2022/07/05 11:53:42;;;;;;;;;;;19.30;54.10;;;;;;4154733;28;19975;-88
2022/07/05 11:56:04;;;;;;;;;;;19.30;54.50;;;;;;4143683;28;19913;-89
2022/07/05 11:58:31;;;;;;;;;;;19.30;54.60;;;;;;4152645;28;19908;-89
2022/07/05 12:00:54;;;;;;;;;;;19.30;54.50;;;;;;4151669;28;19994;-90
2022/07/05 12:03:16;;;;;;;;;;;19.30;54.60;;;;;;4151976;28;20659;-90
2022/07/05 12:05:37;;;;;;;;;;;19.30;54.10;;;;;;4156439;28;19909;-89
2022/07/05 12:07:59;;;;;;;;;;;19.30;53.80;;;;;;4152287;28;19963;-89
2022/07/05 12:13:06;;;;;;;;;;;19.30;53.60;;;;;;4151739;28;19928;-88
2022/07/05 12:15:27;;;;;;;;;;;19.30;53.60;;;;;;4169045;28;19913;-88
2022/07/05 12:17:49;;;;;;;;;;;19.20;54.10;;;;;;4149691;28;20293;-89
2022/07/05 12:20:12;;;;;;;;;;;19.20;54.60;;;;;;4155087;28;20197;-89
2022/07/05 12:22:34;;;;;;;;;;;19.10;55.00;;;;;;4152868;28;19964;-94
2022/07/05 12:24:55;;;;;;;;;;;19.10;55.40;;;;;;4149855;28;19920;-89
2022/07/05 12:27:16;;;;;;;;;;;19.10;55.90;;;;;;4145669;28;19936;-89
2022/07/05 12:29:37;;;;;;;;;;;19.10;56.10;;;;;;4138378;28;19964;-89
2022/07/05 12:32:03;;;;;;;;;;;19.10;56.20;;;;;;4151872;28;20630;-90
2022/07/05 12:34:24;;;;;;;;;;;19.10;56.20;;;;;;4152119;28;20008;-90
2022/07/05 12:36:45;;;;;;;;;;;19.20;55.60;;;;;;4166485;28;19913;-89
2022/07/05 12:39:06;;;;;;;;;;;19.20;55.10;;;;;;4155872;28;20391;-91
2022/07/05 12:41:27;;;;;;;;;;;19.20;54.20;;;;;;4156225;28;20023;-90
2022/07/05 12:43:53;;;;;;;;;;;19.30;53.90;;;;;;4143355;28;19917;-94
2022/07/05 12:46:17;;;;;;;;;;;19.30;54.20;;;;;;4159791;28;19917;-89
2022/07/05 12:48:39;;;;;;;;;;;19.30;52.90;;;;;;4184920;28;20435;-91
2022/07/05 12:51:00;;;;;;;;;;;19.20;52.70;;;;;;4152548;28;20070;-91
2022/07/05 12:58:46;;;;;;;;;;;19.10;53.40;;;;;;4150339;28;19959;-91
2022/07/05 13:01:22;;;;;;;;;;;19.00;53.60;;;;;;4135139;28;19920;-91
2022/07/05 13:04:03;;;;;;;;;;;18.90;53.70;;;;;;4149416;28;20283;-91
2022/07/05 13:06:38;;;;;;;;;;;18.80;53.70;;;;;;4155157;28;19959;-89
2022/07/05 13:08:59;;;;;;;;;;;18.80;53.90;;;;;;4132416;28;19917;-89
2022/07/05 13:11:30;;;;;;;;;;;18.70;53.90;;;;;;4135448;28;20011;-92
2022/07/05 13:13:51;;;;;;;;;;;18.70;53.70;;;;;;4150224;28;19944;-91
2022/07/05 13:16:12;;;;;;;;;;;18.70;53.20;;;;;;4131903;28;21240;-92
2022/07/05 13:18:33;;;;;;;;;;;18.70;53.80;;;;;;4147953;28;20001;-89
2022/07/05 13:20:54;;;;;;;;;;;18.80;53.70;;;;;;4146927;28;20388;-88
2022/07/05 13:23:14;;;;;;;;;;;18.80;53.80;;;;;;4157116;28;19925;-88
2022/07/05 13:25:35;;;;;;;;;;;18.80;53.70;;;;;;4145559;28;20387;-90
2022/07/05 13:27:56;;;;;;;;;;;18.90;54.00;;;;;;4153214;28;19947;-90
2022/07/05 13:30:17;;;;;;;;;;;19.00;53.90;;;;;;4136072;28;20017;-89
2022/07/05 13:32:38;;;;;;;;;;;19.10;53.90;;;;;;4126206;28;21462;-86
2022/07/05 13:34:59;;;;;;;;;;;19.10;53.00;;;;;;4133532;28;19921;-85
2022/07/05 13:37:20;;;;;;;;;;;19.20;53.00;;;;;;4128977;28;19925;-85
2022/07/05 13:39:41;;;;;;;;;;;19.20;52.80;;;;;;4141177;28;20799;-84
2022/07/05 13:42:05;;;;;;;;;;;19.30;52.80;;;;;;4143546;28;19921;-84
2022/07/05 13:44:26;;;;;;;;;;;19.30;52.80;;;;;;4139289;28;20392;-87
2022/07/05 13:46:47;;;;;;;;;;;19.30;52.10;;;;;;4142704;28;20008;-84
2022/07/05 13:49:08;;;;;;;;;;;19.40;51.70;;;;;;4135426;28;21706;-86
2022/07/05 13:51:29;;;;;;;;;;;19.40;51.40;;;;;;4135847;28;19971;-88
2022/07/05 13:53:50;;;;;;;;;;;19.50;51.20;;;;;;4130271;28;19921;-87
2022/07/05 13:56:11;;;;;;;;;;;19.50;51.40;;;;;;4137003;28;19917;-85
2022/07/05 13:58:32;;;;;;;;;;;19.50;51.70;;;;;;4149591;28;20289;-86
2022/07/05 14:00:53;;;;;;;;;;;19.60;51.60;;;;;;4142180;28;20417;-87